Main page
METAR-TAF:

METAR-TAF

Airports :

Rivolto Air Base

Udine, Italy

latitude: 45-59N, longitude: 013-02E, elevation: 51 m

Current weather observation

The report was made 7 hours and 19 minutes ago, at 16:55 UTC
Wind 4 kt from the Northwest
Temperature 4°C
Humidity 56%
Pressure 1001 hPa
Visibility 10 km or more
Scattered clouds at a height of 2000 ft

METAR: LIPI 251655Z 31004KT 9999 SCT020 04/M04 Q1001 RMK OVC BKN120 VIS MIN 9999 WIND THR06 01005KT WIND THR24 35004KT BLU

Time: 01:14 (00:14 UTC)

Forecast

The report was made 13 hours and 14 minutes ago, at 11:00 UTC
Forecast valid from 25 at 12 UTC to 25 at 21 UTC
Wind 7 kt from the Northeast
Visibility 10 km or more
Scattered clouds at a height of 3000 ft
Scattered clouds at a height of 7000 ft
Probability 40% :
Temporary
from 25 at 12 UTC to 25 at 16 UTC
Visibility: 6000 m
Few clouds at a height of 1500 ft
Broken clouds at a height of 2000 ft
rain

TAF: LIPI 251100Z 2512/2521 04007KT 9999 SCT030 SCT070 PROB40 TEMPO 2512/2516 6000 RA FEW015 BKN020

Weather observations and forecasts of more than 4000 airports (METAR and TAF reports).

The available stations are represented by yellow and red dots on the map.

Hover mouse over dot to see the name of the station.

Then click to see weather observations and forecasts.

To change the map : click on the green buttons with a black cross to zoom in, on the green button with a dash to zoom out, or on the green arrows for adjacent maps.


METAR-TAF: